Time;durP1;ratioP1;P1;durP2;ratioP2;P2;SDS_P1;SDS_P2;PMS_P1;PMS_P2;Temp;Humidity;BMP_temperature;BMP_pressure;BME280_temperature;BME280_humidity;BME280_pressure;Samples;Min_cycle;Max_cycle;Signal;HPM_P1;HPM_P2
2023/01/22 00:01:24;;;;;;;34.43;18.83;;;2.50;99.90;;;2.25;87.11;101196.78;5099927;28;20262;-69
2023/01/22 00:03:53;;;;;;;35.47;18.27;;;2.50;99.90;;;2.26;87.42;101193.41;5103092;28;20246;-70
2023/01/22 00:06:23;;;;;;;34.20;18.20;;;2.50;99.90;;;2.25;86.96;101196.78;5096991;28;20232;-70
2023/01/22 00:08:53;;;;;;;34.00;18.20;;;2.50;99.90;;;2.23;86.70;101189.06;5091110;28;20204;-71
2023/01/22 00:11:21;;;;;;;34.93;18.77;;;2.50;99.90;;;2.24;86.64;101192.47;5086444;28;20209;-70
2023/01/22 00:13:51;;;;;;;30.53;16.83;;;2.50;99.90;;;2.21;86.61;101192.34;5083406;28;20289;-70
2023/01/22 00:16:19;;;;;;;33.03;17.47;;;2.50;99.90;;;2.19;86.76;101192.28;5087858;28;20287;-73
2023/01/22 00:18:48;;;;;;;36.13;18.27;;;2.50;99.90;;;2.16;86.82;101194.69;5089951;28;20236;-70
2023/01/22 00:21:18;;;;;;;32.03;17.20;;;2.40;99.90;;;2.17;86.77;101196.44;5037051;28;20868;-69
2023/01/22 00:23:46;;;;;;;30.93;17.67;;;2.40;99.90;;;2.16;86.81;101205.72;5082786;28;20209;-72
2023/01/22 00:26:17;;;;;;;34.20;17.43;;;2.50;99.90;;;2.17;86.60;101206.59;5046094;28;20208;-72
2023/01/22 00:28:45;;;;;;;30.03;16.43;;;2.40;99.90;;;2.15;86.20;101200.59;5084263;28;20205;-68
2023/01/22 00:31:15;;;;;;;32.87;18.03;;;2.40;99.90;;;2.13;86.88;101203.06;5089168;28;20676;-69
2023/01/22 00:33:45;;;;;;;34.33;17.53;;;2.40;99.90;;;2.15;86.80;101215.84;5082479;28;20295;-70
2023/01/22 00:36:18;;;;;;;33.23;17.60;;;2.40;99.90;;;2.12;87.24;101205.56;5083011;28;20647;-71
2023/01/22 00:38:48;;;;;;;29.53;15.83;;;2.40;99.90;;;2.10;86.80;101217.31;5087429;28;20247;-70
2023/01/22 00:41:18;;;;;;;27.97;16.47;;;2.40;99.90;;;2.08;86.73;101213.88;5094201;28;20730;-70
2023/01/22 00:43:46;;;;;;;32.07;16.80;;;2.40;99.90;;;2.06;87.07;101221.44;5042990;28;20196;-71
2023/01/22 00:46:17;;;;;;;32.47;17.23;;;2.30;99.90;;;2.03;86.80;101223.84;5039435;28;20236;-71
2023/01/22 00:48:48;;;;;;;30.80;15.80;;;2.30;99.90;;;2.02;86.94;101223.75;5092588;28;20201;-71
2023/01/22 00:51:18;;;;;;;30.57;16.23;;;2.30;99.90;;;2.02;86.58;101226.31;5094055;28;20201;-69
2023/01/22 00:53:47;;;;;;;27.67;15.13;;;2.30;99.90;;;2.02;86.91;101229.72;5092929;28;20707;-69
2023/01/22 00:56:16;;;;;;;29.17;15.27;;;2.30;99.90;;;2.03;86.78;101228.06;5095388;28;20232;-72
2023/01/22 00:58:45;;;;;;;28.77;15.33;;;2.30;99.90;;;2.06;87.23;101233.25;5091407;28;20200;-70
2023/01/22 01:01:15;;;;;;;28.07;15.53;;;2.40;99.90;;;2.04;86.92;101230.66;5094111;28;20231;-68
2023/01/22 01:03:43;;;;;;;31.47;15.07;;;2.30;99.90;;;2.07;86.68;101229.94;5094303;28;20212;-70
2023/01/22 01:06:17;;;;;;;27.23;14.63;;;2.40;99.90;;;2.06;86.78;101234.16;5089527;28;20209;-71
2023/01/22 01:08:48;;;;;;;28.07;14.47;;;2.40;99.90;;;2.06;87.01;101238.34;5093276;28;20278;-71
2023/01/22 01:11:20;;;;;;;27.10;13.93;;;2.30;99.90;;;2.03;86.40;101239.09;5092358;28;20211;-71
2023/01/22 01:13:50;;;;;;;26.20;14.27;;;2.30;99.90;;;2.03;86.62;101234.00;5094330;28;20342;-71
2023/01/22 01:16:22;;;;;;;25.03;14.47;;;2.30;99.90;;;2.01;86.73;101230.53;5086236;28;20266;-70
2023/01/22 01:18:51;;;;;;;24.33;13.93;;;2.30;99.90;;;2.00;86.92;101233.88;5087247;28;20255;-70
2023/01/22 01:21:19;;;;;;;21.53;12.43;;;2.30;99.90;;;2.02;87.09;101242.41;5087323;28;20236;-69
2023/01/22 01:23:49;;;;;;;26.63;13.67;;;2.30;99.90;;;2.00;86.85;101249.13;5085930;28;20201;-71
2023/01/22 01:26:17;;;;;;;26.50;14.13;;;2.30;99.90;;;2.00;86.42;101240.63;5086367;28;20218;-71
2023/01/22 01:28:46;;;;;;;22.20;13.00;;;2.30;99.90;;;1.98;85.96;101235.47;5092140;28;20209;-70
2023/01/22 01:31:17;;;;;;;25.80;13.40;;;2.20;99.90;;;1.98;87.21;101244.78;5068610;28;20204;-69
2023/01/22 01:33:46;;;;;;;23.07;12.43;;;2.20;99.90;;;1.96;86.49;101246.41;5075232;28;20211;-70
2023/01/22 01:36:18;;;;;;;25.93;14.00;;;2.20;99.90;;;1.94;86.76;101246.31;5092334;28;20204;-69
2023/01/22 01:39:08;;;;;;;21.80;13.03;;;2.20;99.90;;;1.98;87.27;101250.72;5083133;28;20212;-69
2023/01/22 01:41:37;;;;;;;22.00;12.63;;;2.20;99.90;;;1.98;86.94;101258.34;5090604;28;20277;-68
2023/01/22 01:44:12;;;;;;;22.73;12.67;;;2.30;99.90;;;1.97;86.91;101250.66;5093137;28;20201;-71
2023/01/22 01:46:47;;;;;;;23.40;12.20;;;2.30;99.90;;;1.95;87.04;101260.75;5093430;28;20538;-70
2023/01/22 01:49:24;;;;;;;19.50;12.47;;;2.20;99.90;;;1.89;86.56;101251.22;5094278;28;20235;-71
2023/01/22 01:51:55;;;;;;;22.13;12.00;;;2.20;99.90;;;1.88;86.89;101257.09;5093154;28;20878;-71
2023/01/22 01:54:26;;;;;;;20.90;11.40;;;2.10;99.90;;;1.87;86.49;101262.09;5092265;28;20273;-72
2023/01/22 01:57:01;;;;;;;18.53;12.27;;;2.20;99.90;;;1.85;86.50;101262.06;5094055;28;20220;-70
2023/01/22 01:59:32;;;;;;;19.13;10.83;;;2.10;99.90;;;1.82;86.38;101261.91;5092691;28;20722;-70
2023/01/22 02:02:04;;;;;;;17.93;10.80;;;2.10;99.90;;;1.81;86.48;101261.84;5093057;28;20288;-70
2023/01/22 02:04:32;;;;;;;19.13;12.00;;;2.10;99.90;;;1.78;86.52;101272.75;5093088;28;20220;-71
2023/01/22 02:07:01;;;;;;;19.87;11.43;;;2.10;99.90;;;1.82;86.66;101283.91;5089001;28;20251;-71
2023/01/22 02:09:33;;;;;;;19.03;10.80;;;2.10;99.90;;;1.83;87.23;101271.25;5090959;28;20606;-71
2023/01/22 02:12:02;;;;;;;20.37;10.47;;;2.10;99.90;;;1.83;86.51;101273.81;5092520;28;20197;-70
2023/01/22 02:14:34;;;;;;;22.83;11.90;;;2.20;99.90;;;1.84;86.48;101270.50;5093568;28;20208;-71
2023/01/22 02:17:06;;;;;;;17.37;11.17;;;2.20;99.90;;;1.86;86.63;101275.63;5089521;28;20220;-72
2023/01/22 02:19:35;;;;;;;16.60;10.93;;;2.20;99.90;;;1.86;86.92;101273.94;5092848;28;20696;-73
2023/01/22 02:22:13;;;;;;;17.47;10.00;;;2.10;99.90;;;1.90;87.15;101280.03;5082968;28;20246;-71
2023/01/22 02:24:41;;;;;;;18.53;10.87;;;2.10;99.90;;;1.90;86.21;101273.28;5093464;28;20208;-70
2023/01/22 02:27:10;;;;;;;18.03;10.43;;;2.20;99.90;;;1.89;86.20;101266.47;5083279;28;20211;-71
2023/01/22 02:29:39;;;;;;;18.67;10.63;;;2.20;99.90;;;1.92;86.51;101273.34;5092877;28;20235;-70
2023/01/22 02:32:08;;;;;;;18.63;10.53;;;2.20;99.90;;;1.92;86.90;101271.69;5093820;28;20601;-70
2023/01/22 02:34:37;;;;;;;18.97;10.67;;;2.20;99.90;;;1.90;86.57;101278.34;5092478;28;20226;-72
2023/01/22 02:37:07;;;;;;;19.37;10.80;;;2.20;99.90;;;1.91;86.29;101280.13;5091862;28;20719;-70
2023/01/22 02:39:35;;;;;;;18.07;11.07;;;2.20;99.90;;;1.92;86.10;101275.91;5073165;28;20233;-71
2023/01/22 02:42:05;;;;;;;18.10;11.03;;;2.20;99.90;;;1.93;86.40;101283.56;5093364;28;20664;-70
2023/01/22 02:44:34;;;;;;;18.87;10.63;;;2.20;99.90;;;1.91;86.08;101282.66;5081263;28;20251;-69
2023/01/22 02:47:03;;;;;;;19.33;11.00;;;2.20;99.90;;;1.91;86.03;101285.19;5082571;28;20257;-70
2023/01/22 02:49:32;;;;;;;17.37;10.30;;;2.20;99.90;;;1.94;85.87;101290.38;5085586;28;20549;-71
2023/01/22 02:52:00;;;;;;;19.33;10.90;;;2.20;99.90;;;1.94;86.65;101284.44;5091798;28;20193;-71
2023/01/22 02:54:30;;;;;;;20.03;11.10;;;2.20;99.90;;;1.93;85.63;101293.75;5092102;28;20725;-71
2023/01/22 02:56:59;;;;;;;17.17;10.57;;;2.20;99.90;;;1.92;86.44;101296.22;5090335;28;20201;-70
2023/01/22 02:59:27;;;;;;;15.77;10.23;;;2.20;99.90;;;1.92;86.38;101288.59;5093064;28;20204;-70
2023/01/22 03:01:56;;;;;;;17.60;10.07;;;2.20;99.90;;;1.91;85.90;101289.38;5087976;28;20196;-71
2023/01/22 03:04:24;;;;;;;15.77;10.33;;;2.20;99.90;;;1.89;86.71;101291.88;5091697;28;20378;-69
2023/01/22 03:06:53;;;;;;;16.60;10.23;;;2.20;99.90;;;1.88;85.95;101295.22;5090480;28;20208;-71
2023/01/22 03:09:21;;;;;;;18.17;10.83;;;2.20;99.90;;;1.85;86.28;101297.63;5092536;28;20542;-69
2023/01/22 03:11:51;;;;;;;16.17;11.07;;;2.10;99.90;;;1.85;86.65;101305.25;5093739;28;20204;-71
2023/01/22 03:22:39;;;;;;;17.93;11.23;;;2.10;99.90;;;1.78;86.88;101312.53;5093388;28;20273;-68
2023/01/22 03:25:08;;;;;;;19.40;11.70;;;2.10;99.90;;;1.75;86.07;101317.47;5090659;28;20349;-69
2023/01/22 03:28:07;;;;;;;15.60;9.97;;;2.00;99.90;;;1.73;86.94;101319.97;5092313;28;20193;-73
2023/01/22 03:30:27;;;;;;;19.17;11.43;;;2.00;99.90;;;1.76;86.45;101330.25;5091533;28;20742;-70
2023/01/22 03:32:55;;;;;;;17.10;10.60;;;2.10;99.90;;;1.74;86.79;101336.94;5092288;28;20208;-70
2023/01/22 03:35:24;;;;;;;16.13;10.57;;;2.00;99.90;;;1.73;86.85;101335.22;5088857;28;20289;-70
2023/01/22 03:37:52;;;;;;;17.10;11.40;;;2.00;99.90;;;1.73;86.19;101337.75;5092087;28;20268;-69
2023/01/22 03:40:21;;;;;;;18.80;10.50;;;2.00;99.90;;;1.75;86.68;101337.81;5083225;28;20240;-69
2023/01/22 03:42:50;;;;;;;16.50;10.10;;;2.00;99.90;;;1.74;87.00;101326.78;5090338;28;20204;-69
2023/01/22 03:45:19;;;;;;;17.80;10.57;;;2.10;99.90;;;1.77;86.29;101331.09;5090369;28;20212;-69
2023/01/22 03:47:47;;;;;;;18.20;11.10;;;2.00;99.90;;;1.77;86.77;101331.09;5091532;28;20246;-68
2023/01/22 03:50:17;;;;;;;18.27;10.07;;;2.10;99.90;;;1.76;86.80;101330.25;5089441;28;20204;-69
2023/01/22 03:52:46;;;;;;;15.73;10.17;;;2.10;99.90;;;1.74;86.23;101329.31;5091406;28;20278;-70
2023/01/22 03:55:14;;;;;;;18.33;10.53;;;2.00;99.90;;;1.75;86.36;101337.81;5088743;28;20659;-71
2023/01/22 03:57:43;;;;;;;16.73;11.57;;;2.00;99.90;;;1.75;86.01;101346.28;5091826;28;20655;-69
2023/01/22 04:00:14;;;;;;;17.23;10.60;;;2.10;99.90;;;1.74;86.56;101347.09;5088908;28;20762;-71
2023/01/22 04:02:43;;;;;;;16.23;9.80;;;2.00;99.90;;;1.71;85.83;101341.88;5086437;28;20204;-71
2023/01/22 04:05:12;;;;;;;16.50;10.40;;;2.00;99.90;;;1.73;86.01;101345.38;5086314;28;20212;-71
2023/01/22 04:07:40;;;;;;;17.43;11.07;;;2.00;99.90;;;1.73;86.50;101353.00;5090822;28;20201;-70
2023/01/22 04:10:11;;;;;;;15.57;10.50;;;2.00;99.90;;;1.74;85.87;101351.31;5040921;28;20212;-70
2023/01/22 04:12:39;;;;;;;16.47;10.60;;;2.10;99.90;;;1.74;85.80;101362.34;5079628;28;20212;-70
2023/01/22 04:15:10;;;;;;;16.27;10.50;;;2.00;99.90;;;1.73;86.80;101360.63;5091682;28;20296;-70
2023/01/22 04:17:40;;;;;;;14.47;9.87;;;2.00;99.90;;;1.71;85.86;101361.34;5091369;28;20682;-72
2023/01/22 04:20:14;;;;;;;16.80;10.47;;;2.10;99.90;;;1.69;86.01;101363.78;5079805;28;20241;-70
2023/01/22 04:22:43;;;;;;;18.03;11.50;;;2.00;99.90;;;1.68;86.72;101362.06;5091103;28;20261;-70
2023/01/22 04:25:11;;;;;;;16.67;9.73;;;2.00;99.90;;;1.67;86.27;101361.19;5089397;28;20253;-68
2023/01/22 04:27:40;;;;;;;16.60;10.97;;;2.00;99.90;;;1.65;86.12;101361.91;5090910;28;20234;-71
2023/01/22 04:30:09;;;;;;;19.83;11.33;;;2.00;99.90;;;1.65;86.02;101356.84;5090963;28;20204;-70
2023/01/22 04:32:39;;;;;;;15.03;9.97;;;2.00;99.90;;;1.63;86.65;101361.84;5091440;28;20254;-72
2023/01/22 04:35:09;;;;;;;15.40;10.37;;;1.90;99.90;;;1.65;86.36;101356.84;5084119;28;20208;-70
2023/01/22 04:37:37;;;;;;;18.03;10.50;;;1.90;99.90;;;1.64;86.26;101363.59;5091668;28;20216;-70
2023/01/22 04:40:07;;;;;;;16.20;9.33;;;2.00;99.90;;;1.62;86.36;101365.22;5088455;28;20290;-71
2023/01/22 04:42:36;;;;;;;16.47;10.73;;;1.90;99.90;;;1.61;86.66;101360.03;5090095;28;20591;-71
2023/01/22 04:45:06;;;;;;;15.43;9.73;;;2.00;99.90;;;1.60;86.30;101366.78;5090707;28;20936;-70
2023/01/22 04:47:34;;;;;;;17.17;10.40;;;1.90;99.90;;;1.59;86.69;101376.91;5091444;28;20257;-69
2023/01/22 04:50:05;;;;;;;12.63;8.67;;;1.90;99.90;;;1.60;86.45;101379.50;5088895;28;20246;-72
2023/01/22 04:52:33;;;;;;;17.13;10.87;;;1.90;99.90;;;1.58;87.10;101377.69;5091779;28;20238;-70
2023/01/22 04:55:02;;;;;;;17.17;10.43;;;1.90;99.90;;;1.57;86.46;101381.88;5089536;28;20209;-71
2023/01/22 04:57:30;;;;;;;17.13;9.70;;;1.90;99.90;;;1.58;86.42;101385.28;5087655;28;20211;-70
2023/01/22 04:59:59;;;;;;;15.73;9.67;;;1.90;99.90;;;1.56;86.96;101386.91;5089075;28;20232;-71
2023/01/22 05:02:27;;;;;;;15.83;9.40;;;1.90;99.90;;;1.54;86.91;101391.91;5087551;28;20208;-70
2023/01/22 05:04:56;;;;;;;14.77;9.80;;;1.90;99.90;;;1.53;86.76;101386.75;5088963;28;20215;-71
2023/01/22 05:07:25;;;;;;;13.00;9.10;;;1.90;99.90;;;1.53;86.33;101395.25;5091280;28;20209;-71
2023/01/22 05:09:54;;;;;;;14.90;9.60;;;1.80;99.90;;;1.52;86.76;101402.81;5085732;28;20204;-71
2023/01/22 05:12:22;;;;;;;14.83;10.00;;;1.90;99.90;;;1.50;86.62;101400.19;5089941;28;20564;-69
2023/01/22 05:14:51;;;;;;;13.83;9.47;;;1.80;99.90;;;1.50;86.98;101395.09;5088252;28;20205;-70
2023/01/22 05:17:21;;;;;;;17.50;10.30;;;1.80;99.90;;;1.51;86.63;101398.50;5085459;28;20250;-69
2023/01/22 05:19:49;;;;;;;14.80;10.03;;;1.80;99.90;;;1.53;87.37;101396.94;5092596;28;20236;-71
2023/01/22 05:22:18;;;;;;;14.80;9.50;;;1.80;99.90;;;1.56;86.67;101399.63;5086607;28;20201;-71
2023/01/22 05:24:48;;;;;;;14.93;9.03;;;1.90;99.90;;;1.57;86.74;101398.81;5083293;28;20208;-70
2023/01/22 05:27:16;;;;;;;16.90;9.93;;;1.90;99.90;;;1.59;86.96;101402.31;5036356;28;20224;-70
2023/01/22 05:29:45;;;;;;;16.80;10.33;;;1.90;99.90;;;1.59;86.86;101407.38;5090049;28;20540;-70
2023/01/22 05:32:16;;;;;;;14.90;10.23;;;1.90;99.90;;;1.58;86.89;101398.00;5089098;28;20250;-70
2023/01/22 05:34:45;;;;;;;15.20;10.00;;;1.90;99.90;;;1.60;85.96;101404.03;5088342;28;20200;-69
2023/01/22 05:37:13;;;;;;;15.27;10.10;;;1.90;99.90;;;1.60;86.38;101398.94;5093652;28;20261;-70
2023/01/22 05:39:42;;;;;;;15.87;10.63;;;1.90;99.90;;;1.60;86.93;101404.91;5094654;28;20285;-70
2023/01/22 05:42:15;;;;;;;12.80;8.93;;;1.90;99.90;;;1.61;86.55;101408.31;5093526;28;20338;-70
2023/01/22 05:44:45;;;;;;;15.07;9.93;;;1.90;99.90;;;1.63;86.54;101414.34;5092365;28;20220;-70
2023/01/22 05:47:14;;;;;;;16.10;9.73;;;1.90;99.90;;;1.62;86.35;101410.94;5083313;28;20621;-71
2023/01/22 05:49:42;;;;;;;15.00;9.77;;;1.90;99.90;;;1.62;86.22;101408.41;5091168;28;20535;-71
2023/01/22 05:52:11;;;;;;;15.07;9.17;;;1.90;99.90;;;1.62;86.49;101418.56;5093740;28;20458;-70
2023/01/22 05:54:39;;;;;;;14.53;9.47;;;1.90;99.90;;;1.61;86.54;101415.94;5092827;28;20227;-70
2023/01/22 05:57:08;;;;;;;14.00;8.87;;;1.90;99.90;;;1.60;86.26;101419.28;5092776;28;20193;-70
2023/01/22 05:59:38;;;;;;;14.63;9.73;;;1.90;99.90;;;1.58;86.10;101426.81;5094412;28;20688;-70
2023/01/22 06:02:06;;;;;;;16.03;10.17;;;1.90;99.90;;;1.56;85.94;101432.63;5086658;28;20197;-69
2023/01/22 06:04:35;;;;;;;14.70;9.50;;;1.90;99.90;;;1.58;86.54;101431.03;5091913;28;20585;-69
2023/01/22 06:07:04;;;;;;;16.83;10.20;;;1.90;99.90;;;1.56;86.40;101432.63;5092520;28;20209;-69
2023/01/22 06:09:32;;;;;;;14.83;9.93;;;1.90;99.90;;;1.58;85.77;101438.63;5090249;28;20209;-70
2023/01/22 06:12:00;;;;;;;15.70;9.57;;;1.90;99.90;;;1.59;85.69;101445.47;5092604;28;20204;-70
2023/01/22 06:14:29;;;;;;;14.30;9.70;;;1.90;99.90;;;1.58;86.09;101441.19;5093711;28;20212;-70
2023/01/22 06:17:00;;;;;;;15.53;9.60;;;1.90;99.90;;;1.58;86.29;101446.25;5085610;28;20220;-70
2023/01/22 06:19:29;;;;;;;14.50;9.37;;;1.90;99.90;;;1.59;85.93;101456.50;5093340;28;20250;-69
2023/01/22 06:21:58;;;;;;;14.53;9.53;;;1.90;99.90;;;1.61;86.03;101451.50;5081468;28;20205;-71
2023/01/22 06:24:26;;;;;;;17.13;10.10;;;1.90;99.90;;;1.61;86.42;101449.81;5087961;28;20212;-69
2023/01/22 06:26:55;;;;;;;13.63;9.70;;;1.90;99.90;;;1.63;86.39;101455.00;5090676;28;20254;-68
2023/01/22 06:29:23;;;;;;;12.63;9.00;;;1.90;99.90;;;1.60;85.74;101455.69;5092970;28;20197;-71
2023/01/22 06:31:52;;;;;;;15.53;10.43;;;1.90;99.90;;;1.58;85.42;101451.34;5075179;28;20209;-70
2023/01/22 06:34:22;;;;;;;17.80;10.50;;;1.90;99.90;;;1.58;85.64;101453.88;5086428;28;20216;-71
2023/01/22 06:36:51;;;;;;;15.17;9.03;;;1.90;99.90;;;1.61;85.97;101461.66;5091965;28;20211;-71
2023/01/22 06:39:19;;;;;;;14.43;9.43;;;1.90;99.90;;;1.62;86.12;101463.38;5090882;28;20252;-72
2023/01/22 06:41:48;;;;;;;15.27;9.27;;;1.90;99.90;;;1.61;85.36;101462.50;5093289;28;20227;-69
2023/01/22 06:44:17;;;;;;;13.93;9.17;;;1.90;99.90;;;1.63;85.73;101468.56;5088246;28;20205;-71
2023/01/22 06:46:46;;;;;;;15.67;9.17;;;2.00;99.90;;;1.63;85.89;101466.00;5090670;28;20613;-71
2023/01/22 06:49:15;;;;;;;14.37;9.63;;;2.00;99.90;;;1.64;85.48;101472.84;5089272;28;20231;-70
2023/01/22 06:51:47;;;;;;;13.37;9.10;;;2.00;99.90;;;1.66;85.59;101478.00;5087431;28;20225;-69
2023/01/22 06:54:15;;;;;;;13.87;9.63;;;2.00;99.90;;;1.66;85.68;101470.38;5085287;28;20259;-70
2023/01/22 06:56:44;;;;;;;15.43;11.88;;;2.00;99.90;;;1.65;85.40;101481.31;5085725;28;20449;-69
2023/01/22 06:59:12;;;;;;;13.50;9.63;;;2.00;99.90;;;1.65;85.04;101478.78;5105430;28;20234;-67
2023/01/22 07:01:41;;;;;;;13.73;9.77;;;1.90;99.90;;;1.64;85.28;101484.66;5109564;28;20404;-67
2023/01/22 07:04:09;;;;;;;19.03;8.97;;;2.00;99.90;;;1.64;84.56;101498.25;5102688;28;20256;-68
2023/01/22 07:06:38;;;;;;;13.33;8.93;;;1.90;99.90;;;1.65;84.54;101499.09;5101093;28;20243;-69
2023/01/22 07:09:07;;;;;;;12.03;8.80;;;2.00;99.90;;;1.67;84.87;101508.56;5112886;28;20206;-66
2023/01/22 07:11:36;;;;;;;14.23;8.97;;;2.00;99.90;;;1.68;85.33;101499.25;5106976;28;20228;-68
2023/01/22 07:14:04;;;;;;;12.20;8.70;;;2.00;99.90;;;1.67;85.03;101511.09;5108873;28;20200;-68
2023/01/22 07:16:33;;;;;;;12.10;8.23;;;2.00;99.90;;;1.70;84.27;101512.91;5111615;28;20200;-67
2023/01/22 07:19:01;;;;;;;16.73;12.27;;;2.00;99.90;;;1.73;85.53;101517.25;5104567;28;20428;-65
2023/01/22 07:21:31;;;;;;;11.57;8.70;;;2.00;99.90;;;1.72;84.49;101521.47;5089999;28;20247;-67
2023/01/22 07:23:59;;;;;;;12.40;8.90;;;2.00;99.90;;;1.72;85.11;101525.69;5101499;28;20607;-66
2023/01/22 07:26:29;;;;;;;12.67;9.00;;;2.00;99.90;;;1.75;84.34;101525.84;5092281;28;20662;-65
2023/01/22 07:28:57;;;;;;;11.53;8.43;;;2.00;99.90;;;1.74;84.67;101522.44;5094311;28;20204;-67
2023/01/22 07:31:26;;;;;;;13.13;8.77;;;2.00;99.90;;;1.77;84.02;101524.22;5101648;28;20200;-67
2023/01/22 07:33:54;;;;;;;12.17;8.60;;;2.10;99.90;;;1.78;84.73;101519.22;5103012;28;20211;-66
2023/01/22 07:36:23;;;;;;;12.73;8.93;;;2.10;99.90;;;1.78;84.41;101523.44;5098872;28;20259;-69
2023/01/22 07:38:52;;;;;;;14.60;9.40;;;2.10;99.90;;;1.78;84.35;101531.94;5103225;28;20192;-66
2023/01/22 07:41:20;;;;;;;11.90;8.37;;;2.10;99.90;;;1.79;84.84;101535.34;5099677;28;20647;-67
2023/01/22 07:43:56;;;;;;;10.77;8.57;;;2.10;99.90;;;1.81;83.83;101536.31;5094966;28;20219;-68
2023/01/22 07:46:25;;;;;;;12.27;8.87;;;2.10;99.90;;;1.81;84.36;101542.25;5100458;28;20232;-68
2023/01/22 07:48:53;;;;;;;12.63;9.17;;;2.10;99.90;;;1.80;84.75;101539.63;5108462;28;20230;-67
2023/01/22 07:51:22;;;;;;;12.53;9.10;;;2.10;99.90;;;1.80;84.58;101545.56;5095289;28;20744;-67
2023/01/22 07:53:50;;;;;;;14.30;9.13;;;2.10;99.90;;;1.83;84.35;101549.94;5092872;28;20200;-67
2023/01/22 07:56:19;;;;;;;11.00;8.27;;;2.10;99.90;;;1.83;84.70;101550.81;5095854;28;20188;-66
2023/01/22 07:58:47;;;;;;;15.23;9.40;;;2.20;99.90;;;1.84;84.32;101552.56;5103962;28;20196;-67
2023/01/22 08:01:17;;;;;;;15.27;9.30;;;2.20;99.90;;;1.85;84.18;101549.22;5104754;28;20226;-66
2023/01/22 08:03:46;;;;;;;11.50;8.90;;;2.10;99.90;;;1.87;84.30;101554.38;5109642;28;20193;-68
2023/01/22 08:06:19;;;;;;;12.23;8.47;;;2.20;99.90;;;1.86;84.44;101556.03;5105368;28;20189;-67
2023/01/22 08:08:47;;;;;;;12.90;9.47;;;2.20;99.90;;;1.89;83.57;101557.88;5111322;28;20185;-66
2023/01/22 08:11:16;;;;;;;14.10;9.23;;;2.20;99.90;;;1.87;84.37;101557.78;5055640;28;20197;-64
2023/01/22 08:13:44;;;;;;;12.53;9.27;;;2.20;99.90;;;1.86;83.28;101568.75;5112548;28;20185;-67
2023/01/22 08:16:13;;;;;;;15.03;9.37;;;2.20;99.90;;;1.86;84.27;101572.97;5113257;28;20211;-66
2023/01/22 08:18:43;;;;;;;12.67;9.30;;;2.10;99.90;;;1.84;83.36;101565.28;5107017;28;20207;-67
2023/01/22 08:21:11;;;;;;;16.00;9.40;;;2.20;99.90;;;1.84;83.83;101562.72;5106224;28;20217;-66
2023/01/22 08:23:40;;;;;;;13.83;9.60;;;2.20;99.90;;;1.83;83.68;101566.06;5108928;28;20630;-70
2023/01/22 08:26:11;;;;;;;13.40;8.90;;;2.20;99.90;;;1.81;84.00;101567.66;5098543;28;20211;-68
2023/01/22 08:28:41;;;;;;;13.33;9.40;;;2.10;99.90;;;1.81;83.73;101571.88;5103490;28;20192;-67
2023/01/22 08:31:09;;;;;;;15.27;10.07;;;2.10;99.90;;;1.82;83.33;101571.94;5098299;28;20211;-66
2023/01/22 08:33:51;;;;;;;15.63;10.27;;;2.20;99.90;;;1.84;83.62;101572.91;5096832;28;20200;-68
2023/01/22 08:36:19;;;;;;;15.30;9.83;;;2.20;99.90;;;1.84;83.47;101572.91;5090140;28;20200;-65
2023/01/22 08:38:48;;;;;;;14.30;10.20;;;2.20;99.90;;;1.89;83.58;101579.06;5096865;28;20202;-69
2023/01/22 08:41:16;;;;;;;14.83;10.00;;;2.20;99.90;;;1.90;83.72;101585.00;5048479;28;20653;-71
2023/01/22 08:43:45;;;;;;;14.67;9.83;;;2.30;99.90;;;1.91;83.22;101589.28;5085914;28;20607;-71
2023/01/22 08:46:14;;;;;;;18.47;9.53;;;2.30;99.90;;;1.92;83.92;101581.75;5085468;28;20220;-72
2023/01/22 08:48:43;;;;;;;14.63;9.93;;;2.30;99.90;;;1.93;83.50;101596.19;5085360;28;20212;-70
2023/01/22 08:51:13;;;;;;;13.43;9.37;;;2.30;99.90;;;1.94;83.04;101599.59;5087561;28;20212;-70
2023/01/22 08:53:41;;;;;;;17.80;10.17;;;2.30;99.90;;;1.93;83.30;101593.66;5079310;28;20205;-72
2023/01/22 08:56:10;;;;;;;17.67;10.07;;;2.30;99.90;;;1.87;82.60;101595.88;5083857;28;20212;-69
2023/01/22 08:58:38;;;;;;;13.53;10.00;;;2.20;99.90;;;1.86;83.45;101604.31;5087195;28;20485;-73
2023/01/22 09:01:15;;;;;;;15.67;10.67;;;2.20;99.90;;;1.85;83.45;101605.13;5086443;28;20333;-67
2023/01/22 09:03:44;;;;;;;16.17;10.17;;;2.20;99.90;;;1.85;82.93;101594.09;5087925;28;20201;-70
2023/01/22 09:06:14;;;;;;;14.83;9.43;;;2.20;99.90;;;1.87;83.46;101603.53;5087026;28;20243;-73
2023/01/22 09:08:43;;;;;;;15.07;10.27;;;2.20;99.90;;;1.87;83.03;101603.53;5084824;28;20209;-71
2023/01/22 09:11:11;;;;;;;16.57;9.77;;;2.20;99.90;;;1.87;82.88;101603.53;5107861;28;20245;-69
2023/01/22 09:13:39;;;;;;;15.37;9.87;;;2.20;99.90;;;1.89;83.50;101607.03;5098473;28;20208;-68
2023/01/22 09:16:09;;;;;;;18.20;11.37;;;2.20;99.90;;;1.90;83.03;101612.97;5097925;28;20201;-69
2023/01/22 09:18:39;;;;;;;18.20;9.87;;;2.20;99.90;;;1.91;82.81;101619.78;5094279;28;20232;-73
2023/01/22 09:21:08;;;;;;;17.33;10.33;;;2.20;99.90;;;1.90;82.83;101616.38;5107911;28;20232;-68
2023/01/22 09:23:37;;;;;;;15.60;9.90;;;2.20;99.90;;;1.87;82.25;101618.75;5097912;28;20210;-69
2023/01/22 09:26:06;;;;;;;18.37;10.53;;;2.20;99.90;;;1.88;82.16;101619.66;5100936;28;20200;-67
2023/01/22 09:28:35;;;;;;;15.20;10.17;;;2.30;99.90;;;1.89;82.85;101619.72;5095333;28;20205;-69
2023/01/22 09:31:04;;;;;;;16.03;10.03;;;2.20;99.90;;;1.87;82.26;101623.84;5099230;28;20185;-69
2023/01/22 09:33:33;;;;;;;15.07;9.93;;;2.20;99.90;;;1.90;82.95;101624.00;5099674;28;20208;-70
2023/01/22 09:36:10;;;;;;;17.73;11.43;;;2.20;99.90;;;1.92;82.67;101626.63;5091646;28;20209;-70
2023/01/22 09:38:40;;;;;;;15.87;10.27;;;2.30;99.90;;;1.94;82.43;101625.03;5098496;28;20205;-71
2023/01/22 09:41:19;;;;;;;17.23;10.03;;;2.30;99.90;;;1.96;82.25;101622.59;5089411;28;20265;-71
2023/01/22 09:43:53;;;;;;;16.63;10.63;;;2.30;99.90;;;1.97;82.50;101619.22;5087680;28;20698;-68
2023/01/22 09:46:29;;;;;;;15.60;10.03;;;2.30;99.90;;;2.01;82.14;101628.75;5090635;28;20193;-70
2023/01/22 09:49:02;;;;;;;18.00;10.80;;;2.30;99.90;;;2.03;82.35;101625.50;5093433;28;20992;-65
2023/01/22 09:51:30;;;;;;;21.87;11.70;;;2.40;99.90;;;2.06;81.47;101627.28;5086094;28;20274;-65
2023/01/22 09:54:03;;;;;;;18.50;10.70;;;2.40;99.90;;;2.07;81.90;101622.28;5079277;28;21923;-68
2023/01/22 09:56:40;;;;;;;17.23;10.10;;;2.40;99.90;;;2.07;81.84;101627.38;5082311;28;20224;-66
2023/01/22 09:59:16;;;;;;;16.10;10.33;;;2.40;99.90;;;2.09;81.49;101627.44;5090038;28;20234;-69
2023/01/22 10:01:51;;;;;;;15.90;10.00;;;2.40;99.90;;;2.07;81.52;101616.34;5100620;28;20236;-69
2023/01/22 10:04:36;;;;;;;16.63;9.83;;;2.40;99.90;;;2.08;80.99;101620.63;5097944;28;20708;-69
2023/01/22 10:07:12;;;;;;;15.37;9.23;;;2.40;99.90;;;2.06;81.37;101637.47;5088728;28;20278;-68
2023/01/22 10:09:51;;;;;;;16.30;10.50;;;2.50;99.90;;;2.10;81.00;101636.81;5103315;28;20215;-67
2023/01/22 10:12:20;;;;;;;17.87;10.57;;;2.50;99.90;;;2.12;81.31;101641.16;5049290;28;20204;-69
2023/01/22 10:14:51;;;;;;;15.37;10.43;;;2.50;99.90;;;2.14;81.39;101633.63;5105908;28;20200;-70
2023/01/22 10:17:24;;;;;;;17.57;10.00;;;2.50;99.90;;;2.16;81.21;101635.44;5111623;28;20201;-69
2023/01/22 10:19:59;;;;;;;14.67;8.70;;;2.60;99.90;;;2.20;80.67;101633.91;5104870;28;20212;-69
2023/01/22 10:22:29;;;;;;;14.03;9.20;;;2.60;99.90;;;2.23;80.88;101630.66;5105325;28;20228;-71
2023/01/22 10:24:59;;;;;;;15.67;9.83;;;2.60;99.90;;;2.24;80.69;101629.84;5106653;28;20219;-72
2023/01/22 10:27:38;;;;;;;15.27;9.37;;;2.50;99.90;;;2.24;80.95;101635.78;5092273;28;20268;-72
2023/01/22 10:30:20;;;;;;;14.50;9.07;;;2.50;99.90;;;2.20;80.28;101633.91;5073178;28;20207;-69
2023/01/22 10:32:59;;;;;;;13.60;9.10;;;2.50;99.90;;;2.17;79.88;101628.66;5089986;28;20200;-70
2023/01/22 10:35:30;;;;;;;15.17;9.53;;;2.50;99.90;;;2.13;80.15;101622.56;5101384;28;20192;-69